ENFB

Oslo, Fornebu Airport

Oslo, Norway
METAR ENFB 222120Z AUTO 17037KT //// BKN005/// BKN038/// BKN048/// 07/07 Q0997 W///S5
Observed Flight Rules
Apr-22 @ 21:20 UTC (31 minutes ago)
Wind Clouds
170° at 37 knots
  • Broken at 500' AGL
  • Broken at 3,800' AGL
  • Broken at 4,800' AGL
Temperatures Readings
Current 7°C / 45°F
Dewpoint 7°C / 45°F
Humidity 100%
Altimeter 29.44" Hg
Pressure 997 hPa
Elevation 10
METAR ENFB 222120Z AUTO 17037KT //// BKN005/// BKN038/// BKN048/// 07/07 Q0997 W///S5
Observed Flight Rules
Apr-22 @ 21:20 UTC
(31 minutes ago)
Wind
170° at 37 knots
Clouds
  • Broken at 500' AGL
  • Broken at 3,800' AGL
  • Broken at 4,800' AGL
Temperature Dewpoint
7°C / 45°F 7°C / 45°F
Humidity Altimeter Pressure
100% 29.44" Hg 997 hPa